Time;durP1;ratioP1;P1;durP2;ratioP2;P2;SDS_P1;SDS_P2;PMS_P1;PMS_P2;Temp;Humidity;BMP_temperature;BMP_pressure;BME280_temperature;BME280_humidity;BME280_pressure;Samples;Min_cycle;Max_cycle;Signal;HPM_P1;HPM_P2
2023/12/10 00:01:19;;;;;;;47.50;27.83;;;3.80;99.90;;;;;;5009136;28;20493;-76
2023/12/10 00:03:46;;;;;;;48.63;29.33;;;3.80;99.90;;;;;;5008375;28;20034;-78
2023/12/10 00:06:14;;;;;;;57.83;33.10;;;3.80;99.90;;;;;;5008306;28;20049;-79
2023/12/10 00:08:41;;;;;;;53.10;30.83;;;3.60;99.90;;;;;;5010066;28;20109;-77
2023/12/10 00:11:08;;;;;;;62.60;33.15;;;3.50;99.90;;;;;;5009911;28;20440;-78
2023/12/10 00:13:36;;;;;;;52.50;29.23;;;3.40;99.90;;;;;;5009800;28;20429;-78
2023/12/10 00:16:03;;;;;;;49.20;29.70;;;3.30;99.90;;;;;;5005424;28;20117;-77
2023/12/10 00:18:30;;;;;;;48.45;29.10;;;3.20;99.90;;;;;;5008844;28;20071;-77
2023/12/10 00:20:58;;;;;;;44.63;27.85;;;3.00;99.90;;;;;;5008058;28;20060;-78
2023/12/10 00:23:25;;;;;;;110.85;57.97;;;3.10;99.90;;;;;;5009210;28;20048;-78
2023/12/10 00:25:52;;;;;;;55.55;34.05;;;3.60;99.90;;;;;;5009171;28;20034;-77
2023/12/10 00:28:20;;;;;;;53.53;33.40;;;3.80;99.90;;;;;;5009741;28;20038;-78
2023/12/10 00:30:51;;;;;;;55.90;39.17;;;3.40;99.90;;;;;;5009901;28;20033;-75
2023/12/10 00:33:20;;;;;;;69.65;44.25;;;3.20;99.90;;;;;;5009176;28;20050;-77
2023/12/10 00:35:48;;;;;;;62.22;42.65;;;3.20;99.90;;;;;;5010112;28;20041;-77
2023/12/10 00:38:15;;;;;;;59.95;42.28;;;3.20;99.90;;;;;;5009140;28;20068;-76
2023/12/10 00:40:46;;;;;;;63.03;42.60;;;3.20;99.90;;;;;;5013494;28;20033;-75
2023/12/10 00:43:14;;;;;;;69.38;43.92;;;3.20;99.90;;;;;;5012123;28;20030;-77
2023/12/10 00:45:41;;;;;;;81.45;49.53;;;3.10;99.90;;;;;;5005910;28;20058;-77
2023/12/10 00:48:10;;;;;;;68.20;44.42;;;3.10;99.90;;;;;;5012920;28;20042;-76
2023/12/10 00:50:37;;;;;;;61.28;41.00;;;3.10;99.90;;;;;;5013583;28;20404;-76
2023/12/10 00:53:05;;;;;;;59.60;39.60;;;3.00;99.90;;;;;;5009005;28;20503;-78
2023/12/10 00:55:32;;;;;;;52.60;34.40;;;3.00;99.90;;;;;;5013241;28;20068;-79
2023/12/10 00:58:00;;;;;;;103.65;57.25;;;3.10;99.90;;;;;;5012518;28;20034;-78
2023/12/10 01:00:27;;;;;;;107.20;59.83;;;3.40;99.90;;;;;;5012921;28;20030;-79
2023/12/10 01:02:56;;;;;;;91.70;53.00;;;3.50;99.90;;;;;;5012752;28;20385;-79
2023/12/10 01:05:23;;;;;;;103.57;55.92;;;3.60;99.90;;;;;;5013036;28;20105;-75
2023/12/10 01:07:51;;;;;;;116.57;64.93;;;3.50;99.90;;;;;;5007512;28;20366;-79
2023/12/10 01:10:19;;;;;;;81.38;48.88;;;3.50;99.90;;;;;;5011854;28;20030;-75
2023/12/10 01:12:46;;;;;;;56.97;37.08;;;3.30;99.90;;;;;;5026963;28;20058;-76
2023/12/10 01:15:14;;;;;;;49.15;32.75;;;3.20;99.90;;;;;;5010961;28;20050;-75
2023/12/10 01:17:41;;;;;;;46.15;31.80;;;3.30;99.90;;;;;;5025886;28;20038;-75
2023/12/10 01:20:09;;;;;;;48.13;32.05;;;3.00;99.90;;;;;;5009403;28;20385;-75
2023/12/10 01:22:37;;;;;;;46.15;30.73;;;2.90;99.90;;;;;;5009149;28;20048;-76
2023/12/10 01:25:05;;;;;;;46.15;30.17;;;3.00;99.90;;;;;;5022198;28;20412;-75
2023/12/10 01:27:32;;;;;;;47.47;31.45;;;3.00;99.90;;;;;;5007220;28;20046;-75
2023/12/10 01:29:59;;;;;;;45.60;30.58;;;2.90;99.90;;;;;;5008610;28;20046;-77
2023/12/10 01:32:27;;;;;;;47.30;30.77;;;2.90;99.90;;;;;;5012665;28;20066;-75
2023/12/10 01:34:54;;;;;;;54.10;30.85;;;2.90;99.90;;;;;;5011182;28;20065;-77
2023/12/10 01:37:22;;;;;;;51.13;30.80;;;3.00;99.90;;;;;;5027221;28;20045;-77
2023/12/10 01:39:49;;;;;;;46.15;28.27;;;2.90;99.90;;;;;;5012389;28;20112;-78
2023/12/10 01:42:17;;;;;;;47.92;30.35;;;2.90;99.90;;;;;;5011969;28;20029;-78
2023/12/10 01:44:44;;;;;;;50.50;31.08;;;3.00;99.90;;;;;;5012104;28;20054;-79
2023/12/10 01:47:12;;;;;;;50.78;33.97;;;3.00;99.90;;;;;;5007515;28;20034;-80
2023/12/10 01:49:41;;;;;;;53.10;35.28;;;2.90;99.90;;;;;;5009127;28;20520;-77
2023/12/10 01:52:09;;;;;;;59.17;35.70;;;2.90;99.90;;;;;;5012473;28;20438;-78
2023/12/10 01:54:36;;;;;;;56.50;38.17;;;2.90;99.90;;;;;;5012228;28;20034;-80
2023/12/10 01:57:04;;;;;;;64.90;36.85;;;2.70;99.90;;;;;;5011476;28;20057;-75
2023/12/10 01:59:36;;;;;;;185.93;95.18;;;2.80;99.90;;;;;;5011908;28;20041;-77
2023/12/10 02:02:05;;;;;;;78.25;48.67;;;2.80;99.90;;;;;;5012596;28;20034;-76
2023/12/10 02:04:32;;;;;;;61.78;40.85;;;2.60;99.90;;;;;;5011724;28;20060;-78
2023/12/10 02:07:00;;;;;;;64.05;38.85;;;2.30;99.90;;;;;;4976563;28;20060;-77
2023/12/10 02:09:27;;;;;;;60.40;37.85;;;2.40;99.90;;;;;;5011433;28;20106;-78
2023/12/10 02:11:56;;;;;;;58.10;36.40;;;2.40;99.90;;;;;;5011171;28;20041;-78
2023/12/10 02:14:23;;;;;;;53.13;33.67;;;2.40;99.90;;;;;;5011757;28;20038;-75
2023/12/10 02:16:50;;;;;;;61.05;35.63;;;2.40;99.90;;;;;;5010379;28;20038;-86
2023/12/10 02:19:18;;;;;;;54.45;36.38;;;2.40;99.90;;;;;;5011538;28;20064;-78
2023/12/10 02:22:24;;;;;;;58.97;36.17;;;2.50;99.90;;;;;;4995035;28;20042;-78
2023/12/10 02:25:03;;;;;;;56.38;33.08;;;2.30;99.90;;;;;;4995801;28;20025;-86
2023/12/10 02:27:35;;;;;;;47.95;32.17;;;2.30;99.90;;;;;;5011154;28;20124;-78
2023/12/10 02:30:04;;;;;;;50.13;33.40;;;2.10;99.90;;;;;;4994096;28;20030;-71
2023/12/10 02:32:32;;;;;;;50.85;31.42;;;2.20;99.90;;;;;;5010877;28;20088;-73
2023/12/10 02:35:00;;;;;;;48.38;32.30;;;2.10;99.90;;;;;;5011105;28;20145;-73
2023/12/10 02:37:28;;;;;;;53.92;31.80;;;2.20;99.90;;;;;;5011199;28;20049;-73
2023/12/10 02:40:06;;;;;;;55.78;32.28;;;2.10;99.90;;;;;;5009352;28;20049;-75
2023/12/10 02:42:37;;;;;;;52.80;35.50;;;2.20;99.90;;;;;;4969291;28;20117;-76
2023/12/10 02:45:07;;;;;;;53.65;34.05;;;2.20;99.90;;;;;;5006733;28;20488;-73
2023/12/10 02:47:36;;;;;;;53.95;31.75;;;2.20;99.90;;;;;;5010711;28;20034;-76
2023/12/10 02:50:04;;;;;;;50.33;30.63;;;2.10;99.90;;;;;;5010975;28;20038;-76
2023/12/10 02:52:32;;;;;;;45.60;30.05;;;1.90;99.90;;;;;;5011741;28;20362;-77
2023/12/10 02:54:59;;;;;;;51.97;32.92;;;1.90;99.90;;;;;;5010601;28;20057;-74
2023/12/10 02:57:27;;;;;;;50.67;30.55;;;2.00;99.90;;;;;;5010212;28;20037;-74
2023/12/10 02:59:54;;;;;;;61.20;38.17;;;2.10;99.90;;;;;;5010595;28;20080;-75
2023/12/10 03:02:21;;;;;;;71.60;41.97;;;2.20;99.90;;;;;;5011405;28;20038;-76
2023/12/10 03:04:49;;;;;;;77.13;44.50;;;2.10;99.90;;;;;;5011035;28;20026;-75
2023/12/10 03:07:16;;;;;;;70.47;43.65;;;2.00;99.90;;;;;;5010315;28;20038;-75
2023/12/10 03:09:44;;;;;;;67.40;42.33;;;2.00;99.90;;;;;;5010807;28;20045;-74
2023/12/10 03:12:11;;;;;;;63.38;41.00;;;2.10;99.90;;;;;;5010739;28;20056;-74
2023/12/10 03:14:39;;;;;;;68.43;40.22;;;2.10;99.90;;;;;;5007927;28;20026;-74
2023/12/10 03:17:07;;;;;;;71.72;43.55;;;2.10;99.90;;;;;;5010794;28;20049;-73
2023/12/10 03:19:34;;;;;;;73.70;39.55;;;1.90;99.90;;;;;;5010601;28;20026;-74
2023/12/10 03:22:01;;;;;;;55.42;35.15;;;1.90;99.90;;;;;;5010884;28;20386;-74
2023/12/10 03:24:28;;;;;;;55.70;33.70;;;1.80;99.90;;;;;;5009820;28;20060;-74
2023/12/10 03:26:56;;;;;;;44.72;28.17;;;1.80;99.90;;;;;;5010067;28;20099;-73
2023/12/10 03:29:23;;;;;;;45.70;29.45;;;1.90;99.90;;;;;;5010618;28;20452;-73
2023/12/10 03:31:50;;;;;;;47.60;29.13;;;1.90;99.90;;;;;;5010586;28;20030;-73
2023/12/10 03:34:17;;;;;;;39.58;25.75;;;1.70;99.90;;;;;;4992394;28;20044;-74
2023/12/10 03:36:45;;;;;;;49.15;27.60;;;1.80;99.90;;;;;;5010950;28;20030;-76
2023/12/10 03:39:13;;;;;;;40.95;25.67;;;1.80;99.90;;;;;;4991992;28;20029;-75
2023/12/10 03:41:40;;;;;;;42.20;25.88;;;1.80;99.90;;;;;;4993206;28;20041;-75
2023/12/10 03:44:07;;;;;;;40.38;25.50;;;1.80;99.90;;;;;;5009935;28;20058;-74
2023/12/10 03:46:35;;;;;;;41.58;25.55;;;1.90;99.90;;;;;;4999928;28;20084;-75
2023/12/10 03:49:02;;;;;;;41.63;24.55;;;2.00;99.90;;;;;;5009576;28;20103;-74
2023/12/10 03:51:30;;;;;;;37.97;23.55;;;1.90;99.90;;;;;;5010294;28;20046;-75
2023/12/10 03:54:00;;;;;;;34.67;24.27;;;1.80;99.90;;;;;;5009557;28;20450;-75
2023/12/10 03:56:27;;;;;;;38.88;23.80;;;1.70;99.90;;;;;;5010305;28;20436;-76
2023/12/10 03:58:55;;;;;;;36.70;22.83;;;1.50;99.90;;;;;;5010250;28;20056;-73
2023/12/10 04:01:22;;;;;;;40.58;23.70;;;1.60;99.90;;;;;;5010243;28;20387;-74
2023/12/10 04:03:50;;;;;;;36.50;22.13;;;1.70;99.90;;;;;;5009876;28;20466;-73
2023/12/10 04:06:17;;;;;;;36.33;23.27;;;1.60;99.90;;;;;;5009722;28;20100;-73
2023/12/10 04:08:45;;;;;;;38.97;23.23;;;1.50;99.90;;;;;;5009380;28;20038;-74
2023/12/10 04:11:21;;;;;;;41.83;23.85;;;1.50;99.90;;;;;;5009701;28;20034;-74
2023/12/10 04:13:49;;;;;;;38.90;22.20;;;1.70;99.90;;;;;;5009827;28;20038;-73
2023/12/10 04:16:30;;;;;;;35.42;21.75;;;1.70;99.90;;;;;;5009564;28;20069;-74
2023/12/10 04:18:58;;;;;;;36.58;22.75;;;1.60;99.90;;;;;;5009903;28;20033;-74
2023/12/10 04:21:25;;;;;;;32.88;20.70;;;1.60;99.90;;;;;;5009473;28;20054;-73
2023/12/10 04:23:53;;;;;;;33.42;20.63;;;1.60;99.90;;;;;;5018387;28;20038;-74
2023/12/10 04:26:21;;;;;;;34.95;21.88;;;1.40;99.90;;;;;;5009529;28;20215;-74
2023/12/10 04:28:49;;;;;;;35.53;20.45;;;1.40;99.90;;;;;;5009875;28;20034;-73
2023/12/10 04:31:16;;;;;;;33.08;20.83;;;1.30;99.90;;;;;;5009769;28;20106;-73
2023/12/10 04:33:44;;;;;;;34.75;21.58;;;1.40;99.90;;;;;;5009890;28;20057;-73
2023/12/10 04:36:13;;;;;;;40.33;21.38;;;1.50;99.90;;;;;;5005742;28;20125;-74
2023/12/10 04:38:41;;;;;;;29.88;18.70;;;1.60;99.90;;;;;;5005557;28;20026;-74
2023/12/10 04:41:08;;;;;;;32.72;21.20;;;1.50;99.90;;;;;;5003892;28;20048;-73
2023/12/10 04:43:36;;;;;;;35.60;21.98;;;1.60;99.90;;;;;;5009584;28;20092;-73
2023/12/10 04:46:04;;;;;;;31.67;21.33;;;1.70;99.90;;;;;;5009536;28;20045;-73
2023/12/10 04:48:32;;;;;;;29.08;19.25;;;1.70;99.90;;;;;;5009494;28;20076;-74
2023/12/10 04:51:00;;;;;;;31.00;19.90;;;1.70;99.90;;;;;;5009266;28;20057;-73
2023/12/10 04:53:27;;;;;;;37.42;21.08;;;1.60;99.90;;;;;;5009483;28;20032;-74
2023/12/10 04:55:55;;;;;;;33.28;21.55;;;1.50;99.90;;;;;;5009890;28;20037;-76
2023/12/10 04:58:22;;;;;;;36.72;21.67;;;1.40;99.90;;;;;;5009458;28;20517;-75
2023/12/10 05:00:49;;;;;;;35.72;22.30;;;1.50;99.90;;;;;;5010228;28;20377;-77
2023/12/10 05:03:17;;;;;;;38.03;21.98;;;1.40;99.90;;;;;;5009054;28;20046;-75
2023/12/10 05:05:44;;;;;;;36.90;23.30;;;1.40;99.90;;;;;;5009674;28;20108;-76
2023/12/10 05:08:12;;;;;;;39.13;21.48;;;1.30;99.90;;;;;;5009555;28;20553;-78
2023/12/10 05:10:39;;;;;;;29.80;21.38;;;1.30;99.90;;;;;;5010008;28;20053;-76
2023/12/10 05:13:06;;;;;;;39.70;21.50;;;1.30;99.90;;;;;;5008637;28;20038;-75
2023/12/10 05:15:34;;;;;;;31.75;20.73;;;1.40;99.90;;;;;;5009643;28;20420;-77
2023/12/10 05:18:02;;;;;;;35.92;20.75;;;1.50;99.90;;;;;;5009360;28;20034;-76
2023/12/10 05:20:30;;;;;;;33.60;21.40;;;1.40;99.90;;;;;;5009650;28;20034;-78
2023/12/10 05:23:00;;;;;;;35.47;21.38;;;1.50;99.90;;;;;;5008778;28;20117;-77
2023/12/10 05:25:29;;;;;;;35.28;20.95;;;1.30;99.90;;;;;;5012909;28;20037;-76
2023/12/10 05:27:57;;;;;;;31.13;19.88;;;1.30;99.90;;;;;;5012646;28;20067;-76
2023/12/10 05:30:25;;;;;;;31.08;19.73;;;1.30;99.90;;;;;;5012883;28;20034;-75
2023/12/10 05:32:53;;;;;;;31.58;19.90;;;1.20;99.90;;;;;;5012239;28;20081;-76
2023/12/10 05:35:20;;;;;;;34.00;20.15;;;1.10;99.90;;;;;;4994628;28;20057;-74
2023/12/10 05:37:47;;;;;;;31.20;19.45;;;1.10;99.90;;;;;;5012674;28;20062;-74
2023/12/10 05:40:15;;;;;;;30.17;19.35;;;1.10;99.90;;;;;;5011971;28;20038;-75
2023/12/10 05:42:42;;;;;;;33.78;20.33;;;1.10;99.90;;;;;;5011614;28;20462;-72
2023/12/10 05:45:10;;;;;;;29.58;19.48;;;0.90;99.90;;;;;;5012467;28;20038;-73
2023/12/10 05:47:37;;;;;;;30.45;20.08;;;1.00;99.90;;;;;;5012578;28;20067;-75
2023/12/10 05:50:04;;;;;;;34.88;20.60;;;0.90;99.90;;;;;;5012455;28;20369;-76
2023/12/10 05:52:32;;;;;;;34.13;18.23;;;0.80;99.90;;;;;;5012265;28;20108;-75
2023/12/10 05:54:59;;;;;;;30.85;19.52;;;0.80;99.90;;;;;;5012305;28;20030;-77
2023/12/10 05:57:27;;;;;;;31.23;19.92;;;0.80;99.90;;;;;;5012847;28;20048;-76
2023/12/10 05:59:55;;;;;;;31.55;19.15;;;0.90;99.90;;;;;;5012518;28;20425;-74
2023/12/10 06:02:22;;;;;;;28.67;19.52;;;1.00;99.90;;;;;;4994209;28;20046;-74
2023/12/10 06:04:49;;;;;;;30.65;19.80;;;1.00;99.90;;;;;;5012374;28;20104;-75
2023/12/10 06:07:17;;;;;;;30.40;19.98;;;1.00;99.90;;;;;;5009385;28;20048;-75
2023/12/10 06:09:45;;;;;;;30.27;19.75;;;1.00;99.90;;;;;;5011361;28;20041;-75
2023/12/10 06:12:12;;;;;;;33.45;21.58;;;1.00;99.90;;;;;;5011234;28;20069;-75
2023/12/10 06:14:40;;;;;;;31.98;21.20;;;1.10;99.90;;;;;;5011934;28;20108;-76
2023/12/10 06:17:09;;;;;;;35.60;20.30;;;1.00;99.90;;;;;;5011761;28;20049;-76
2023/12/10 06:19:36;;;;;;;40.75;21.25;;;1.10;99.90;;;;;;4997834;28;20140;-78
2023/12/10 06:22:04;;;;;;;35.70;20.88;;;1.20;99.90;;;;;;5011564;28;20080;-78
2023/12/10 06:24:31;;;;;;;37.08;21.52;;;1.30;99.90;;;;;;5011502;28;20096;-77
2023/12/10 06:26:59;;;;;;;31.83;20.27;;;1.20;99.90;;;;;;5011916;28;20049;-77
2023/12/10 06:29:26;;;;;;;34.13;20.65;;;1.30;99.90;;;;;;5012190;28;20038;-75
2023/12/10 06:31:54;;;;;;;38.13;20.42;;;1.30;99.90;;;;;;4994531;28;20042;-78
2023/12/10 06:34:21;;;;;;;36.03;21.27;;;1.30;99.90;;;;;;5011523;28;20040;-77
2023/12/10 06:36:49;;;;;;;34.08;21.25;;;1.30;99.90;;;;;;5014124;28;20118;-78
2023/12/10 06:39:16;;;;;;;33.45;20.27;;;1.50;99.90;;;;;;5011424;28;20242;-79
2023/12/10 06:41:44;;;;;;;37.92;20.55;;;1.60;99.90;;;;;;5011301;28;20064;-77
2023/12/10 06:44:14;;;;;;;35.35;20.25;;;1.70;99.90;;;;;;5010773;28;20109;-78
2023/12/10 06:46:42;;;;;;;30.50;20.23;;;1.70;99.90;;;;;;4993980;28;20038;-78
2023/12/10 06:49:09;;;;;;;33.47;20.67;;;1.80;99.90;;;;;;5011484;28;20034;-76
2023/12/10 06:51:37;;;;;;;33.78;20.70;;;1.80;99.90;;;;;;5010744;28;20100;-77
2023/12/10 06:54:04;;;;;;;30.20;20.98;;;1.90;99.90;;;;;;5010980;28;20049;-76
2023/12/10 06:56:33;;;;;;;29.55;19.67;;;2.10;99.90;;;;;;5011198;28;20053;-77
2023/12/10 06:59:00;;;;;;;36.50;21.52;;;2.10;99.90;;;;;;5011388;28;20026;-74
2023/12/10 07:01:27;;;;;;;30.45;19.35;;;2.10;99.90;;;;;;5010751;28;20788;-75
2023/12/10 07:03:58;;;;;;;31.25;20.60;;;2.20;99.90;;;;;;4993723;28;20370;-77
2023/12/10 07:06:25;;;;;;;34.05;19.80;;;2.30;99.90;;;;;;5011308;28;20096;-77
2023/12/10 07:08:53;;;;;;;26.25;18.60;;;2.50;99.90;;;;;;5010632;28;20025;-75
2023/12/10 07:11:20;;;;;;;30.83;19.80;;;2.70;99.90;;;;;;5011240;28;20044;-75
2023/12/10 07:13:48;;;;;;;28.92;18.58;;;2.80;99.90;;;;;;5010595;28;20034;-76
2023/12/10 07:16:16;;;;;;;31.23;19.77;;;2.90;99.90;;;;;;5010569;28;20408;-77
2023/12/10 07:18:43;;;;;;;31.05;19.92;;;3.10;99.90;;;;;;5010952;28;20109;-77
2023/12/10 07:21:11;;;;;;;36.15;20.60;;;3.20;99.90;;;;;;5010137;28;20038;-77
2023/12/10 07:23:38;;;;;;;29.55;19.85;;;3.00;99.90;;;;;;5010553;28;20038;-76
2023/12/10 07:26:06;;;;;;;33.47;21.17;;;3.10;99.90;;;;;;5010317;28;20068;-74
2023/12/10 07:28:33;;;;;;;32.15;20.85;;;3.20;99.90;;;;;;5010993;28;20038;-75
2023/12/10 07:31:01;;;;;;;31.83;21.95;;;3.10;99.90;;;;;;5010017;28;20112;-76
2023/12/10 07:33:29;;;;;;;31.95;19.95;;;3.20;99.90;;;;;;5010606;28;20034;-78
2023/12/10 07:35:57;;;;;;;33.20;20.35;;;3.30;99.90;;;;;;4993115;28;20045;-75
2023/12/10 07:38:25;;;;;;;32.95;21.15;;;3.40;99.90;;;;;;5010695;28;20038;-76
2023/12/10 07:40:52;;;;;;;31.80;20.88;;;3.40;99.90;;;;;;5010359;28;20054;-76
2023/12/10 07:43:20;;;;;;;33.88;21.08;;;3.50;99.90;;;;;;5005640;28;20037;-75
2023/12/10 07:45:47;;;;;;;33.05;21.25;;;3.40;99.90;;;;;;5009773;28;20049;-76
2023/12/10 07:48:15;;;;;;;34.97;22.27;;;3.30;99.90;;;;;;5009357;28;20297;-78
2023/12/10 07:50:43;;;;;;;37.63;21.92;;;3.40;99.90;;;;;;4989555;28;20034;-75
2023/12/10 07:53:10;;;;;;;42.15;24.77;;;3.60;99.90;;;;;;4992944;28;20448;-77
2023/12/10 07:55:37;;;;;;;38.90;23.67;;;3.60;99.90;;;;;;5010973;28;20129;-75
2023/12/10 07:58:05;;;;;;;45.08;26.52;;;3.60;99.90;;;;;;4991732;28;20033;-78
2023/12/10 08:00:32;;;;;;;43.08;25.38;;;3.50;99.90;;;;;;5010966;28;20042;-77
2023/12/10 08:03:00;;;;;;;38.78;25.42;;;3.60;99.90;;;;;;5009764;28;20038;-75
2023/12/10 08:05:28;;;;;;;41.53;23.88;;;3.80;99.90;;;;;;4993179;28;20104;-76
2023/12/10 08:07:58;;;;;;;37.60;22.63;;;3.70;99.90;;;;;;5010291;28;20493;-76
2023/12/10 08:10:26;;;;;;;30.80;21.90;;;4.10;99.90;;;;;;5010464;28;20062;-77
2023/12/10 08:12:53;;;;;;;38.15;22.65;;;4.30;99.90;;;;;;4992617;28;20515;-78
2023/12/10 08:15:21;;;;;;;38.75;23.30;;;4.40;99.90;;;;;;5007512;28;20116;-77
2023/12/10 08:17:49;;;;;;;37.47;22.52;;;4.50;99.90;;;;;;4992472;28;20046;-74
2023/12/10 08:20:16;;;;;;;36.53;22.98;;;4.60;99.90;;;;;;5009481;28;20070;-77
2023/12/10 08:22:48;;;;;;;35.53;22.90;;;4.80;99.90;;;;;;5006184;28;20152;-75
2023/12/10 08:25:15;;;;;;;30.92;21.60;;;4.50;99.90;;;;;;4992982;28;20038;-76
2023/12/10 08:27:43;;;;;;;34.65;22.88;;;4.80;99.90;;;;;;5009377;28;20505;-76
2023/12/10 08:30:11;;;;;;;32.65;22.92;;;5.10;99.90;;;;;;5010134;28;20030;-74
2023/12/10 08:32:38;;;;;;;35.45;22.52;;;5.30;99.90;;;;;;4992302;28;20052;-75
2023/12/10 08:35:08;;;;;;;43.10;23.83;;;5.30;99.60;;;;;;5010090;28;20113;-83
2023/12/10 08:37:38;;;;;;;33.85;22.00;;;5.50;99.70;;;;;;4976098;28;20049;-80
2023/12/10 08:40:06;;;;;;;40.33;23.60;;;5.50;99.00;;;;;;4992511;28;20117;-82
2023/12/10 08:42:34;;;;;;;36.42;23.15;;;5.60;99.70;;;;;;5009244;28;20120;-81
2023/12/10 08:45:01;;;;;;;37.42;22.58;;;5.90;99.30;;;;;;5009640;28;20132;-78
2023/12/10 08:47:28;;;;;;;40.45;24.80;;;5.90;98.40;;;;;;5007580;28;20048;-81
2023/12/10 08:49:56;;;;;;;37.80;23.30;;;6.20;98.80;;;;;;5009469;28;20041;-85
2023/12/10 08:52:23;;;;;;;39.22;24.10;;;6.60;98.40;;;;;;5010657;28;20065;-80
2023/12/10 08:54:50;;;;;;;36.40;22.98;;;6.90;97.60;;;;;;5009871;28;20133;-78
2023/12/10 08:57:20;;;;;;;40.60;25.25;;;7.20;97.40;;;;;;5010348;28;20939;-84
2023/12/10 08:59:47;;;;;;;38.78;23.10;;;7.50;96.90;;;;;;4992306;28;20531;-79
2023/12/10 09:02:14;;;;;;;37.13;25.15;;;7.30;96.10;;;;;;4992127;28;20067;-82
2023/12/10 09:04:42;;;;;;;36.45;22.73;;;7.40;96.70;;;;;;5013421;28;20034;-79
2023/12/10 09:07:10;;;;;;;33.55;22.40;;;7.90;95.60;;;;;;5012968;28;20124;-78
2023/12/10 09:09:37;;;;;;;34.20;22.65;;;8.10;95.70;;;;;;5013480;28;20433;-79
2023/12/10 09:12:05;;;;;;;39.47;25.17;;;8.40;95.30;;;;;;4995704;28;20421;-77
2023/12/10 09:14:33;;;;;;;40.53;25.23;;;8.50;94.80;;;;;;5013105;28;20038;-76
2023/12/10 09:17:00;;;;;;;40.95;26.85;;;7.60;94.90;;;;;;5012782;28;20168;-75
2023/12/10 09:19:29;;;;;;;40.03;25.77;;;7.30;95.50;;;;;;5012218;28;20034;-76
2023/12/10 09:21:56;;;;;;;42.70;27.60;;;7.00;96.30;;;;;;4990336;28;20042;-76
2023/12/10 09:24:26;;;;;;;42.53;29.63;;;6.90;96.80;;;;;;4992225;28;20117;-76
2023/12/10 09:26:56;;;;;;;48.90;29.85;;;6.90;96.80;;;;;;5013187;28;20042;-79
2023/12/10 09:29:23;;;;;;;42.35;29.65;;;6.80;96.70;;;;;;5012385;28;20030;-78
2023/12/10 09:31:50;;;;;;;49.60;30.75;;;6.90;97.00;;;;;;5012693;28;20034;-77
2023/12/10 09:34:18;;;;;;;45.10;30.40;;;6.90;96.70;;;;;;4994773;28;20053;-78
2023/12/10 09:36:47;;;;;;;52.33;31.60;;;6.80;97.10;;;;;;5012968;28;20046;-80
2023/12/10 09:39:14;;;;;;;48.00;30.88;;;6.60;97.10;;;;;;5011931;28;20034;-76
2023/12/10 09:41:41;;;;;;;43.88;29.10;;;6.60;97.20;;;;;;4984935;28;20034;-79
2023/12/10 09:44:09;;;;;;;42.88;28.13;;;6.60;97.40;;;;;;5012856;28;20076;-77
2023/12/10 09:46:39;;;;;;;45.72;29.75;;;6.60;97.10;;;;;;5011995;28;20038;-76
2023/12/10 09:49:06;;;;;;;44.25;29.88;;;6.40;97.30;;;;;;5010302;28;20030;-75
2023/12/10 09:51:34;;;;;;;47.30;29.40;;;6.30;97.80;;;;;;5012618;28;20116;-76
2023/12/10 09:54:04;;;;;;;47.33;29.48;;;6.10;97.90;;;;;;5011936;28;20038;-73
2023/12/10 09:56:31;;;;;;;43.97;28.50;;;6.10;98.20;;;;;;4994644;28;20054;-79
2023/12/10 09:58:58;;;;;;;42.03;26.88;;;6.20;98.40;;;;;;5012225;28;20215;-78
2023/12/10 10:01:28;;;;;;;45.40;27.88;;;6.30;98.40;;;;;;5012011;28;20046;-76
2023/12/10 10:03:56;;;;;;;45.13;27.75;;;6.30;98.10;;;;;;4991106;28;20133;-78
2023/12/10 10:06:23;;;;;;;44.08;27.05;;;6.50;98.10;;;;;;5012421;28;20132;-79
2023/12/10 10:08:51;;;;;;;43.83;27.23;;;6.70;98.00;;;;;;5011149;28;20112;-77
2023/12/10 10:11:18;;;;;;;41.15;26.90;;;6.60;97.70;;;;;;5011448;28;20289;-75
2023/12/10 10:13:53;;;;;;;42.30;27.77;;;6.40;98.40;;;;;;5011859;28;20133;-77
2023/12/10 10:16:21;;;;;;;40.63;25.70;;;6.60;98.20;;;;;;5011694;28;20277;-76
2023/12/10 10:18:48;;;;;;;43.88;26.25;;;6.60;98.10;;;;;;4994539;28;20101;-77
2023/12/10 10:21:16;;;;;;;38.28;25.10;;;6.60;98.20;;;;;;5011476;28;20036;-76
2023/12/10 10:23:43;;;;;;;40.08;25.58;;;6.70;98.10;;;;;;5010844;28;20623;-74
2023/12/10 10:26:11;;;;;;;39.70;23.52;;;6.50;97.90;;;;;;5011272;28;20123;-73
2023/12/10 10:28:39;;;;;;;39.28;23.83;;;6.60;98.60;;;;;;5010411;28;20040;-77
2023/12/10 10:31:10;;;;;;;39.00;24.85;;;6.90;97.90;;;;;;5010687;28;20048;-76
2023/12/10 10:33:40;;;;;;;84.70;49.50;;;7.20;98.10;;;;;;4974604;28;20192;-77
2023/12/10 10:36:08;;;;;;;150.50;78.03;;;7.50;97.90;;;;;;5011101;28;20045;-77
2023/12/10 10:38:36;;;;;;;103.97;57.33;;;7.60;97.30;;;;;;4990288;28;20030;-72
2023/12/10 10:41:03;;;;;;;43.75;29.08;;;8.00;97.20;;;;;;5010942;28;20033;-77
2023/12/10 10:43:30;;;;;;;37.85;23.98;;;8.00;96.40;;;;;;5010430;28;20042;-75
2023/12/10 10:45:58;;;;;;;34.72;21.85;;;7.50;96.30;;;;;;5011118;28;20120;-73
2023/12/10 10:48:27;;;;;;;36.35;22.83;;;7.50;96.20;;;;;;5007437;28;20516;-77
2023/12/10 10:50:55;;;;;;;30.50;21.13;;;7.50;96.30;;;;;;5010914;28;20037;-77
2023/12/10 10:53:23;;;;;;;29.02;19.38;;;7.60;96.00;;;;;;5010747;28;20073;-73
2023/12/10 10:55:52;;;;;;;35.03;20.25;;;7.50;96.00;;;;;;4992961;28;20033;-77
2023/12/10 10:58:39;;;;;;;34.60;21.85;;;7.50;95.90;;;;;;5009623;28;20145;-73
2023/12/10 11:01:38;;;;;;;38.35;24.02;;;7.70;95.80;;;;;;5009115;28;20112;-74
2023/12/10 11:04:06;;;;;;;34.15;22.50;;;7.80;96.70;;;;;;5007842;28;20041;-76
2023/12/10 11:06:36;;;;;;;96.65;50.70;;;7.30;96.80;;;;;;5007766;28;20038;-76
2023/12/10 11:09:04;;;;;;;74.00;43.60;;;7.60;98.00;;;;;;5009258;28;20410;-77
2023/12/10 11:11:38;;;;;;;68.40;41.70;;;7.80;97.40;;;;;;5007617;28;20458;-78
2023/12/10 11:14:28;;;;;;;38.92;26.73;;;7.50;96.50;;;;;;5007567;28;20033;-74
2023/12/10 11:17:02;;;;;;;32.75;21.90;;;7.50;96.00;;;;;;5007418;28;20038;-75
2023/12/10 11:19:32;;;;;;;30.73;21.05;;;7.40;96.20;;;;;;5007516;28;20160;-75
2023/12/10 11:22:01;;;;;;;27.65;18.27;;;7.30;96.00;;;;;;5005352;28;20388;-76
2023/12/10 11:24:29;;;;;;;27.38;17.13;;;7.20;96.10;;;;;;4989031;28;20081;-76
2023/12/10 11:27:02;;;;;;;25.02;16.70;;;7.30;96.00;;;;;;4992232;28;20096;-74
2023/12/10 11:29:29;;;;;;;25.17;15.77;;;7.40;95.80;;;;;;5009012;28;20092;-74
2023/12/10 11:32:00;;;;;;;26.27;15.57;;;7.50;95.50;;;;;;5006261;28;20558;-73
2023/12/10 11:34:27;;;;;;;27.40;15.63;;;7.50;95.50;;;;;;4992350;28;20069;-73
2023/12/10 11:36:55;;;;;;;26.40;16.73;;;7.60;95.40;;;;;;5008867;28;20042;-76
2023/12/10 11:39:23;;;;;;;24.23;17.02;;;7.70;95.40;;;;;;5008901;28;20546;-76
2023/12/10 11:41:51;;;;;;;29.75;18.02;;;8.50;94.80;;;;;;5009428;28;20045;-80
2023/12/10 11:44:32;;;;;;;24.25;15.93;;;9.20;93.80;;;;;;5007830;28;20049;-74
2023/12/10 11:47:04;;;;;;;26.73;17.75;;;9.20;93.00;;;;;;5008615;28;20045;-75
2023/12/10 11:49:34;;;;;;;28.15;18.70;;;9.70;92.30;;;;;;5010055;28;20045;-76
2023/12/10 11:52:01;;;;;;;31.48;19.58;;;8.60;93.50;;;;;;5009449;28;20038;-76
2023/12/10 11:54:31;;;;;;;29.83;19.40;;;7.80;94.30;;;;;;5009049;28;20052;-75
2023/12/10 11:56:59;;;;;;;29.42;18.55;;;8.00;94.80;;;;;;5006972;28;20038;-74
2023/12/10 11:59:27;;;;;;;30.60;19.15;;;8.30;94.60;;;;;;5009963;28;20038;-77
2023/12/10 12:01:56;;;;;;;35.77;18.43;;;8.20;94.00;;;;;;4990819;28;20124;-77
2023/12/10 12:04:24;;;;;;;28.38;18.45;;;7.70;94.90;;;;;;5009799;28;20113;-74
2023/12/10 12:06:52;;;;;;;27.35;18.52;;;7.30;95.30;;;;;;5008656;28;20033;-77
2023/12/10 12:09:20;;;;;;;28.02;18.98;;;7.10;95.70;;;;;;5004084;28;20105;-74
2023/12/10 12:11:51;;;;;;;31.70;20.40;;;7.50;95.80;;;;;;4990057;28;20125;-77
2023/12/10 12:14:21;;;;;;;28.67;17.48;;;7.80;94.60;;;;;;5005580;28;20040;-79
2023/12/10 12:16:48;;;;;;;25.35;16.95;;;8.10;93.90;;;;;;5008759;28;20034;-77
2023/12/10 12:19:28;;;;;;;23.20;15.10;;;8.10;93.90;;;;;;4998747;28;20065;-79
2023/12/10 12:21:58;;;;;;;23.45;15.35;;;8.20;93.60;;;;;;4987411;28;20112;-78
2023/12/10 12:24:26;;;;;;;19.73;14.27;;;8.20;93.40;;;;;;5006466;28;20034;-81
2023/12/10 12:26:54;;;;;;;23.35;14.55;;;8.20;93.50;;;;;;5004917;28;20120;-77
2023/12/10 12:29:22;;;;;;;26.58;16.80;;;8.00;93.40;;;;;;5007675;28;20034;-79
2023/12/10 12:31:49;;;;;;;41.28;24.02;;;7.70;93.80;;;;;;5005210;28;20064;-75
2023/12/10 12:34:46;;;;;;;22.27;16.95;;;7.60;94.80;;;;;;4996674;28;20532;-73
2023/12/10 12:37:13;;;;;;;25.80;16.15;;;7.10;94.60;;;;;;5011604;28;20132;-72
2023/12/10 12:39:43;;;;;;;26.70;16.92;;;7.00;95.10;;;;;;4996613;28;20346;-78
2023/12/10 12:42:12;;;;;;;26.52;16.80;;;6.90;95.20;;;;;;4995275;28;20444;-79